Time;durP1;ratioP1;P1;durP2;ratioP2;P2;SDS_P1;SDS_P2;PMS_P1;PMS_P2;Temp;Humidity;BMP_temperature;BMP_pressure;BME280_temperature;BME280_humidity;BME280_pressure;Samples;Min_cycle;Max_cycle;Signal;HPM_P1;HPM_P2
2023/04/21 00:00:00;;;;;;;10.50;7.93;;;;;;;;;;5053094;28;20474;-59
2023/04/21 00:02:26;;;;;;;9.85;7.90;;;;;;;;;;5052851;28;20471;-59
2023/04/21 00:04:55;;;;;;;8.98;7.00;;;;;;;;;;5053035;28;20032;-59
2023/04/21 00:07:21;;;;;;;11.05;8.15;;;;;;;;;;5053609;28;20036;-59
2023/04/21 00:09:47;;;;;;;9.80;7.88;;;;;;;;;;5053513;28;20033;-59
2023/04/21 00:12:13;;;;;;;11.15;8.48;;;;;;;;;;5053021;28;20380;-59
2023/04/21 00:14:39;;;;;;;12.40;8.55;;;;;;;;;;5052820;28;20157;-59
2023/04/21 00:17:05;;;;;;;7.95;6.30;;;;;;;;;;5054157;28;20021;-59
2023/04/21 00:19:32;;;;;;;9.73;8.63;;;;;;;;;;5056468;28;20086;-59
2023/04/21 00:22:00;;;;;;;10.57;9.38;;;;;;;;;;5057061;28;20375;-59
2023/04/21 00:24:26;;;;;;;12.48;10.13;;;;;;;;;;5056536;28;20036;-59
2023/04/21 00:26:51;;;;;;;11.63;9.73;;;;;;;;;;5057063;28;20025;-59
2023/04/21 00:29:18;;;;;;;14.25;11.45;;;;;;;;;;5056420;28;20439;-59
2023/04/21 00:31:44;;;;;;;13.55;11.00;;;;;;;;;;5056452;28;20029;-59
2023/04/21 00:34:09;;;;;;;14.13;11.27;;;;;;;;;;5056318;28;20025;-59
2023/04/21 00:36:35;;;;;;;13.07;11.77;;;;;;;;;;5056830;28;20033;-59
2023/04/21 00:39:02;;;;;;;14.77;11.60;;;;;;;;;;5056435;28;20419;-59
2023/04/21 00:41:28;;;;;;;16.58;13.02;;;;;;;;;;5056991;28;20355;-59
2023/04/21 00:44:01;;;;;;;16.05;13.85;;;;;;;;;;5056508;28;20478;-59
2023/04/21 00:46:27;;;;;;;17.98;15.30;;;;;;;;;;5056470;28;20029;-59
2023/04/21 00:48:53;;;;;;;16.88;15.10;;;;;;;;;;5055804;28;20025;-59
2023/04/21 00:51:19;;;;;;;21.05;14.68;;;;;;;;;;5056403;28;20021;-59
2023/04/21 00:53:45;;;;;;;15.15;13.13;;;;;;;;;;5056240;28;20344;-59
2023/04/21 00:56:12;;;;;;;19.52;14.98;;;;;;;;;;5056270;28;20025;-59
2023/04/21 00:58:39;;;;;;;17.00;14.15;;;;;;;;;;5055794;28;20057;-59
2023/04/21 01:01:05;;;;;;;16.85;14.02;;;;;;;;;;5055748;28;20035;-59
2023/04/21 01:03:31;;;;;;;17.48;14.63;;;;;;;;;;5055834;28;20025;-59
2023/04/21 01:05:57;;;;;;;17.98;14.82;;;;;;;;;;5055740;28;20041;-59
2023/04/21 01:08:23;;;;;;;18.48;13.60;;;;;;;;;;5055772;28;20021;-59
2023/04/21 01:10:49;;;;;;;16.83;13.70;;;;;;;;;;5056216;28;20052;-59
2023/04/21 01:13:15;;;;;;;14.93;12.38;;;;;;;;;;5055899;28;20028;-59
2023/04/21 01:15:41;;;;;;;15.98;14.20;;;;;;;;;;5056406;28;20060;-59
2023/04/21 01:18:07;;;;;;;15.73;12.32;;;;;;;;;;5055795;28;20107;-59
2023/04/21 01:20:33;;;;;;;19.33;15.00;;;;;;;;;;5055453;28;20036;-59
2023/04/21 01:22:59;;;;;;;16.20;14.25;;;;;;;;;;5055387;28;20114;-59
2023/04/21 01:25:27;;;;;;;15.57;13.32;;;;;;;;;;5055761;28;20057;-59
2023/04/21 01:27:53;;;;;;;20.52;14.27;;;;;;;;;;5054700;28;20025;-59
2023/04/21 01:30:19;;;;;;;18.65;14.85;;;;;;;;;;5054782;28;20039;-59
2023/04/21 01:32:45;;;;;;;14.68;12.25;;;;;;;;;;5055545;28;20079;-59
2023/04/21 01:35:11;;;;;;;16.42;13.73;;;;;;;;;;5055140;28;20025;-59
2023/04/21 01:37:37;;;;;;;20.90;13.25;;;;;;;;;;5055694;28;20112;-59
2023/04/21 01:40:06;;;;;;;15.15;11.07;;;;;;;;;;5055326;28;20021;-59
2023/04/21 01:42:32;;;;;;;16.38;12.18;;;;;;;;;;5054959;28;20083;-59
2023/04/21 01:44:59;;;;;;;15.82;12.90;;;;;;;;;;5055004;28;20419;-59
2023/04/21 01:47:25;;;;;;;15.52;12.90;;;;;;;;;;5055563;28;20017;-59
2023/04/21 01:49:51;;;;;;;18.80;14.45;;;;;;;;;;5055371;28;20475;-59
2023/04/21 01:52:17;;;;;;;18.33;13.45;;;;;;;;;;5054800;28;20021;-59
2023/04/21 01:54:43;;;;;;;20.08;13.88;;;;;;;;;;5054995;28;20025;-59
2023/04/21 01:57:09;;;;;;;15.73;11.80;;;;;;;;;;5054686;28;20029;-59
2023/04/21 01:59:35;;;;;;;14.32;12.75;;;;;;;;;;5055314;28;20021;-59
2023/04/21 02:02:01;;;;;;;15.57;12.48;;;;;;;;;;5054546;28;20033;-59
2023/04/21 02:04:27;;;;;;;16.92;14.48;;;;;;;;;;5054999;28;20363;-59
2023/04/21 02:06:53;;;;;;;15.25;12.60;;;;;;;;;;5055095;28;20032;-59
2023/04/21 02:09:19;;;;;;;14.43;11.77;;;;;;;;;;5054701;28;20033;-59
2023/04/21 02:11:45;;;;;;;13.77;11.95;;;;;;;;;;5054464;28;20392;-59
2023/04/21 02:14:11;;;;;;;16.73;11.93;;;;;;;;;;5054357;28;20053;-59
2023/04/21 02:16:37;;;;;;;13.07;11.32;;;;;;;;;;5054739;28;20432;-59
2023/04/21 02:19:05;;;;;;;12.60;11.25;;;;;;;;;;5054287;28;20124;-59
2023/04/21 02:21:31;;;;;;;16.00;13.02;;;;;;;;;;5054330;28;20033;-59
2023/04/21 02:23:57;;;;;;;13.68;12.27;;;;;;;;;;5054254;28;20419;-59
2023/04/21 02:26:23;;;;;;;14.30;11.77;;;;;;;;;;5054644;28;20029;-59
2023/04/21 02:28:50;;;;;;;14.80;13.13;;;;;;;;;;5054529;28;20029;-59
2023/04/21 02:31:16;;;;;;;14.48;11.02;;;;;;;;;;5054149;28;20025;-59
2023/04/21 02:33:42;;;;;;;14.10;11.27;;;;;;;;;;5054712;28;20033;-59
2023/04/21 02:36:08;;;;;;;16.63;12.90;;;;;;;;;;5054120;28;20035;-59
2023/04/21 02:38:34;;;;;;;16.33;12.93;;;;;;;;;;5053928;28;20029;-59
2023/04/21 02:41:00;;;;;;;13.25;11.45;;;;;;;;;;5054182;28;20067;-59
2023/04/21 02:43:26;;;;;;;16.10;12.57;;;;;;;;;;5054188;28;20447;-59
2023/04/21 02:45:52;;;;;;;14.20;12.00;;;;;;;;;;5053994;28;20104;-59
2023/04/21 02:48:24;;;;;;;15.20;12.48;;;;;;;;;;5053922;28;20033;-59
2023/04/21 02:50:51;;;;;;;12.43;11.07;;;;;;;;;;5054398;28;20071;-59
2023/04/21 02:53:17;;;;;;;13.50;11.55;;;;;;;;;;5053771;28;20040;-59
2023/04/21 02:55:43;;;;;;;17.55;13.32;;;;;;;;;;5054416;28;20422;-59
2023/04/21 02:58:09;;;;;;;13.85;12.25;;;;;;;;;;5053494;28;20017;-59
2023/04/21 03:00:35;;;;;;;16.00;11.65;;;;;;;;;;5053651;28;20115;-59
2023/04/21 03:03:01;;;;;;;14.80;12.60;;;;;;;;;;5053575;28;20036;-59
2023/04/21 03:05:27;;;;;;;13.82;12.35;;;;;;;;;;5053986;28;20025;-59
2023/04/21 03:07:53;;;;;;;17.75;11.57;;;;;;;;;;5054192;28;20025;-59
2023/04/21 03:10:20;;;;;;;14.82;11.73;;;;;;;;;;5053647;28;20029;-59
2023/04/21 03:12:45;;;;;;;16.20;11.93;;;;;;;;;;5053600;28;20028;-59
2023/04/21 03:15:13;;;;;;;16.90;12.02;;;;;;;;;;5053787;28;20045;-59
2023/04/21 03:17:39;;;;;;;13.93;12.10;;;;;;;;;;5053503;28;20360;-59
2023/04/21 03:20:06;;;;;;;14.07;12.40;;;;;;;;;;5053440;28;20498;-59
2023/04/21 03:22:32;;;;;;;13.93;11.32;;;;;;;;;;5053154;28;20524;-59
2023/04/21 03:24:58;;;;;;;16.33;12.43;;;;;;;;;;5053751;28;20029;-59
2023/04/21 03:27:24;;;;;;;16.17;13.50;;;;;;;;;;5053814;28;20029;-59
2023/04/21 03:29:50;;;;;;;18.60;12.60;;;;;;;;;;5054213;28;20056;-59
2023/04/21 03:32:16;;;;;;;13.02;11.63;;;;;;;;;;5053319;28;20017;-59
2023/04/21 03:34:42;;;;;;;16.02;11.98;;;;;;;;;;5053986;28;20024;-59
2023/04/21 03:37:08;;;;;;;15.25;12.13;;;;;;;;;;5053840;28;20031;-59
2023/04/21 03:39:34;;;;;;;17.75;14.02;;;;;;;;;;5053359;28;20025;-59
2023/04/21 03:42:00;;;;;;;15.70;12.07;;;;;;;;;;5053440;28;20503;-59
2023/04/21 03:44:27;;;;;;;13.55;12.10;;;;;;;;;;5052042;28;20090;-59
2023/04/21 03:46:54;;;;;;;14.95;11.85;;;;;;;;;;5054151;28;20347;-59
2023/04/21 03:49:20;;;;;;;16.70;11.52;;;;;;;;;;5053310;28;20024;-59
2023/04/21 03:51:46;;;;;;;14.63;12.13;;;;;;;;;;5054029;28;20021;-59
2023/04/21 03:54:12;;;;;;;17.50;12.43;;;;;;;;;;5057242;28;20071;-59
2023/04/21 03:56:38;;;;;;;15.20;12.18;;;;;;;;;;5057449;28;20025;-59
2023/04/21 03:59:05;;;;;;;23.48;15.45;;;;;;;;;;5057044;28;20040;-59
2023/04/21 04:01:30;;;;;;;16.40;12.52;;;;;;;;;;5057098;28;20036;-59
2023/04/21 04:03:56;;;;;;;14.13;11.50;;;;;;;;;;5057481;28;20029;-59
2023/04/21 04:06:22;;;;;;;18.95;12.82;;;;;;;;;;5057095;28;20021;-59
2023/04/21 04:08:48;;;;;;;13.55;12.15;;;;;;;;;;5056991;28;20397;-59
2023/04/21 04:11:14;;;;;;;19.85;14.43;;;;;;;;;;5056928;28;20032;-59
2023/04/21 04:13:40;;;;;;;16.80;14.63;;;;;;;;;;5056899;28;20029;-59
2023/04/21 04:16:06;;;;;;;18.58;15.18;;;;;;;;;;5057543;28;20037;-59
2023/04/21 04:18:32;;;;;;;17.00;14.45;;;;;;;;;;5056716;28;20096;-59
2023/04/21 04:20:58;;;;;;;19.13;14.27;;;;;;;;;;5056340;28;20162;-59
2023/04/21 04:23:25;;;;;;;20.55;15.05;;;;;;;;;;5056602;28;20028;-59
2023/04/21 04:25:51;;;;;;;15.65;14.00;;;;;;;;;;5057456;28;20036;-59
2023/04/21 04:28:17;;;;;;;15.82;14.20;;;;;;;;;;5056527;28;20025;-59
2023/04/21 04:30:44;;;;;;;19.08;14.90;;;;;;;;;;5056998;28;20025;-59
2023/04/21 04:33:10;;;;;;;19.52;15.63;;;;;;;;;;5056920;28;20029;-59
2023/04/21 04:35:36;;;;;;;19.33;15.15;;;;;;;;;;5057271;28;20047;-59
2023/04/21 04:38:03;;;;;;;19.63;13.38;;;;;;;;;;5056121;28;20525;-59
2023/04/21 04:40:29;;;;;;;20.23;16.30;;;;;;;;;;5057075;28;20108;-59
2023/04/21 04:42:55;;;;;;;16.40;14.63;;;;;;;;;;5056175;28;20032;-59
2023/04/21 04:45:21;;;;;;;18.10;14.52;;;;;;;;;;5056738;28;20025;-59
2023/04/21 04:47:48;;;;;;;22.65;15.15;;;;;;;;;;5056190;28;20055;-59
2023/04/21 04:50:14;;;;;;;18.88;13.73;;;;;;;;;;5055885;28;20460;-59
2023/04/21 04:52:40;;;;;;;19.20;15.00;;;;;;;;;;5055842;28;20021;-59
2023/04/21 04:55:07;;;;;;;21.92;15.88;;;;;;;;;;5055688;28;20086;-59
2023/04/21 04:57:33;;;;;;;16.35;14.02;;;;;;;;;;5055980;28;20031;-59
2023/04/21 04:59:59;;;;;;;30.33;21.17;;;;;;;;;;5055888;28;20032;-59
2023/04/21 05:02:25;;;;;;;20.10;17.95;;;;;;;;;;5055703;28;20057;-59
2023/04/21 05:04:51;;;;;;;24.55;18.98;;;;;;;;;;5056333;28;20438;-59
2023/04/21 05:07:17;;;;;;;17.25;15.38;;;;;;;;;;5056374;28;20116;-59
2023/04/21 05:09:43;;;;;;;16.30;13.43;;;;;;;;;;5055668;28;20383;-59
2023/04/21 05:12:09;;;;;;;18.13;13.07;;;;;;;;;;5055650;28;20032;-59
2023/04/21 05:14:35;;;;;;;13.85;11.85;;;;;;;;;;5055570;28;20056;-59
2023/04/21 05:17:01;;;;;;;15.98;14.18;;;;;;;;;;5056154;28;20025;-59
2023/04/21 05:19:27;;;;;;;17.05;14.07;;;;;;;;;;5055591;28;20167;-59
2023/04/21 05:21:59;;;;;;;15.98;14.23;;;;;;;;;;5055497;28;20103;-59
2023/04/21 05:24:25;;;;;;;20.05;15.15;;;;;;;;;;5056046;28;20033;-59
2023/04/21 05:26:51;;;;;;;18.15;13.27;;;;;;;;;;5055384;28;20406;-59
2023/04/21 05:29:17;;;;;;;19.75;13.40;;;;;;;;;;5055433;28;20108;-59
2023/04/21 05:31:43;;;;;;;18.65;12.80;;;;;;;;;;5055663;28;20034;-59
2023/04/21 05:34:09;;;;;;;16.00;12.93;;;;;;;;;;5055313;28;20044;-59
2023/04/21 05:36:35;;;;;;;19.75;15.05;;;;;;;;;;5055303;28;20025;-59
2023/04/21 05:39:01;;;;;;;19.00;15.75;;;;;;;;;;5055637;28;20025;-59
2023/04/21 05:41:26;;;;;;;16.15;13.20;;;;;;;;;;5055148;28;20029;-59
2023/04/21 05:43:52;;;;;;;18.08;12.65;;;;;;;;;;5054960;28;20031;-59
2023/04/21 05:46:18;;;;;;;19.60;14.32;;;;;;;;;;5055037;28;20130;-59
2023/04/21 05:48:44;;;;;;;17.25;13.98;;;;;;;;;;5055092;28;20032;-59
2023/04/21 05:51:11;;;;;;;22.30;13.77;;;;;;;;;;5054930;28;20064;-59
2023/04/21 05:53:38;;;;;;;18.98;15.55;;;;;;;;;;5055165;28;20029;-59
2023/04/21 05:56:04;;;;;;;16.73;13.15;;;;;;;;;;5055280;28;20025;-59
2023/04/21 05:58:30;;;;;;;21.55;16.23;;;;;;;;;;5055047;28;20017;-59
2023/04/21 06:00:56;;;;;;;15.57;12.85;;;;;;;;;;5054358;28;20033;-59
2023/04/21 06:03:22;;;;;;;25.00;14.35;;;;;;;;;;5054531;28;20055;-59
2023/04/21 06:05:52;;;;;;;20.13;14.07;;;;;;;;;;5054912;28;20074;-59
2023/04/21 06:08:18;;;;;;;19.75;14.93;;;;;;;;;;5055004;28;20096;-59
2023/04/21 06:10:44;;;;;;;18.45;13.50;;;;;;;;;;5054264;28;20117;-59
2023/04/21 06:13:10;;;;;;;16.75;14.15;;;;;;;;;;5054865;28;20021;-59
2023/04/21 06:15:36;;;;;;;19.85;15.05;;;;;;;;;;5054056;28;20045;-59
2023/04/21 06:18:02;;;;;;;17.92;14.93;;;;;;;;;;5054449;28;20025;-59
2023/04/21 06:20:28;;;;;;;23.17;16.95;;;;;;;;;;5053146;28;20036;-59
2023/04/21 06:22:54;;;;;;;20.02;14.63;;;;;;;;;;5054414;28;20383;-58
2023/04/21 06:25:20;;;;;;;21.30;14.98;;;;;;;;;;5054634;28;20371;-59
2023/04/21 06:27:46;;;;;;;19.52;13.80;;;;;;;;;;5054233;28;20021;-58
2023/04/21 06:30:13;;;;;;;19.48;14.70;;;;;;;;;;5054869;28;20033;-58
2023/04/21 06:32:39;;;;;;;20.33;15.70;;;;;;;;;;5054152;28;20136;-58
2023/04/21 06:35:05;;;;;;;20.33;16.23;;;;;;;;;;5054665;28;20032;-59
2023/04/21 06:37:31;;;;;;;17.20;13.40;;;;;;;;;;5054005;28;20029;-59
2023/04/21 06:39:57;;;;;;;21.13;13.75;;;;;;;;;;5053729;28;20141;-58
2023/04/21 06:42:23;;;;;;;21.45;15.13;;;;;;;;;;5053688;28;20392;-58
2023/04/21 06:44:49;;;;;;;23.15;14.98;;;;;;;;;;5053447;28;20025;-58
2023/04/21 06:47:16;;;;;;;19.33;15.60;;;;;;;;;;5053377;28;20076;-59
2023/04/21 06:49:42;;;;;;;16.80;12.35;;;;;;;;;;5053480;28;20398;-59
2023/04/21 06:52:08;;;;;;;18.40;13.73;;;;;;;;;;5054621;28;20051;-58
2023/04/21 06:54:34;;;;;;;18.95;14.23;;;;;;;;;;5053914;28;20452;-58
2023/04/21 06:57:01;;;;;;;21.67;14.25;;;;;;;;;;5053965;28;20021;-58
2023/04/21 06:59:26;;;;;;;18.15;13.88;;;;;;;;;;5053582;28;20449;-59
2023/04/21 07:01:53;;;;;;;18.25;13.35;;;;;;;;;;5054330;28;20064;-59
2023/04/21 07:04:19;;;;;;;16.58;14.30;;;;;;;;;;5054167;28;20017;-58
2023/04/21 07:06:45;;;;;;;14.10;11.60;;;;;;;;;;5053956;28;20028;-59
2023/04/21 07:09:11;;;;;;;14.48;10.00;;;;;;;;;;5053699;28;20033;-59
2023/04/21 07:11:37;;;;;;;19.25;12.98;;;;;;;;;;5053728;28;20025;-59
2023/04/21 07:14:03;;;;;;;22.02;13.25;;;;;;;;;;5053501;28;20025;-59
2023/04/21 07:16:29;;;;;;;16.08;12.00;;;;;;;;;;5053533;28;20040;-58
2023/04/21 07:18:55;;;;;;;14.63;11.18;;;;;;;;;;5053361;28;20021;-59
2023/04/21 07:21:21;;;;;;;15.68;12.05;;;;;;;;;;5053574;28;20029;-59
2023/04/21 07:23:47;;;;;;;14.68;11.82;;;;;;;;;;5053099;28;20056;-59
2023/04/21 07:26:13;;;;;;;16.98;11.57;;;;;;;;;;5054311;28;20497;-59
2023/04/21 07:28:39;;;;;;;14.73;11.35;;;;;;;;;;5057483;28;20044;-58
2023/04/21 07:31:05;;;;;;;10.20;9.07;;;;;;;;;;5057746;28;20444;-59
2023/04/21 07:33:31;;;;;;;11.73;9.30;;;;;;;;;;5057873;28;20092;-58
2023/04/21 07:35:58;;;;;;;12.85;10.63;;;;;;;;;;5057508;28;20102;-58
2023/04/21 07:38:24;;;;;;;10.23;8.55;;;;;;;;;;5057478;28;20087;-59
2023/04/21 07:40:50;;;;;;;12.80;9.82;;;;;;;;;;5057187;28;20045;-59
2023/04/21 07:43:18;;;;;;;10.27;8.30;;;;;;;;;;5057221;28;20059;-58
2023/04/21 07:45:44;;;;;;;12.38;8.60;;;;;;;;;;5058278;28;20021;-58
2023/04/21 07:48:10;;;;;;;11.82;9.23;;;;;;;;;;5057323;28;20025;-59
2023/04/21 07:50:36;;;;;;;11.68;9.27;;;;;;;;;;5056975;28;20079;-58
2023/04/21 07:53:02;;;;;;;12.65;10.82;;;;;;;;;;5057124;28;20057;-58
2023/04/21 07:55:29;;;;;;;16.77;12.48;;;;;;;;;;5057800;28;20029;-58
2023/04/21 07:57:55;;;;;;;16.10;12.05;;;;;;;;;;5057067;28;20108;-59
2023/04/21 08:00:21;;;;;;;13.00;10.55;;;;;;;;;;5057421;28;20033;-59
2023/04/21 08:02:47;;;;;;;13.00;10.73;;;;;;;;;;5057072;28;20033;-59
2023/04/21 08:05:13;;;;;;;14.32;11.27;;;;;;;;;;5056850;28;20025;-59
2023/04/21 08:07:39;;;;;;;11.95;10.70;;;;;;;;;;5056775;28;20174;-59
2023/04/21 08:10:06;;;;;;;14.13;11.18;;;;;;;;;;5056647;28;20029;-58
2023/04/21 08:12:32;;;;;;;11.80;10.10;;;;;;;;;;5057531;28;20071;-59
2023/04/21 08:14:58;;;;;;;12.52;9.63;;;;;;;;;;5056356;28;20053;-58
2023/04/21 08:17:24;;;;;;;12.60;9.57;;;;;;;;;;5057231;28;20115;-58
2023/04/21 08:19:50;;;;;;;10.98;8.25;;;;;;;;;;5056314;28;20124;-58
2023/04/21 08:22:17;;;;;;;10.43;8.90;;;;;;;;;;5056667;28;20037;-59
2023/04/21 08:24:42;;;;;;;11.43;8.43;;;;;;;;;;5057696;28;20021;-59
2023/04/21 08:27:08;;;;;;;11.57;8.68;;;;;;;;;;5057139;28;20025;-60
2023/04/21 08:29:34;;;;;;;7.88;7.05;;;;;;;;;;5057003;28;20029;-59
2023/04/21 08:32:00;;;;;;;11.23;9.23;;;;;;;;;;5056202;28;20099;-59
2023/04/21 08:34:26;;;;;;;8.95;8.05;;;;;;;;;;5056418;28;20067;-58
2023/04/21 08:36:52;;;;;;;9.95;8.70;;;;;;;;;;5056751;28;20025;-58
2023/04/21 08:39:18;;;;;;;9.20;7.43;;;;;;;;;;5055804;28;20061;-59
2023/04/21 08:41:44;;;;;;;10.18;7.13;;;;;;;;;;5056639;28;20028;-59
2023/04/21 08:44:10;;;;;;;8.00;6.70;;;;;;;;;;5056296;28;20032;-57
2023/04/21 08:46:36;;;;;;;10.10;8.00;;;;;;;;;;5056273;28;20375;-59
2023/04/21 08:49:03;;;;;;;12.65;7.75;;;;;;;;;;5056259;28;20032;-59
2023/04/21 08:51:30;;;;;;;8.27;6.68;;;;;;;;;;5056186;28;20033;-59
2023/04/21 08:53:56;;;;;;;8.07;7.10;;;;;;;;;;5056339;28;20029;-59
2023/04/21 08:56:25;;;;;;;15.18;8.70;;;;;;;;;;5056373;28;20029;-59
2023/04/21 08:58:51;;;;;;;9.00;7.00;;;;;;;;;;5056362;28;20033;-59
2023/04/21 09:01:17;;;;;;;13.27;7.10;;;;;;;;;;5055652;28;20115;-59
2023/04/21 09:03:43;;;;;;;11.95;7.20;;;;;;;;;;5056172;28;20029;-59
2023/04/21 09:06:11;;;;;;;9.18;6.95;;;;;;;;;;5055595;28;20025;-59
2023/04/21 09:08:38;;;;;;;6.90;6.05;;;;;;;;;;5056367;28;20416;-59
2023/04/21 09:11:05;;;;;;;12.75;7.15;;;;;;;;;;5056260;28;20056;-58
2023/04/21 09:13:31;;;;;;;7.97;6.97;;;;;;;;;;5055449;28;20025;-59
2023/04/21 09:15:57;;;;;;;9.63;7.50;;;;;;;;;;5055583;28;20053;-58
2023/04/21 09:18:24;;;;;;;13.57;8.02;;;;;;;;;;5055693;28;20352;-58
2023/04/21 09:20:51;;;;;;;8.40;6.13;;;;;;;;;;5055516;28;20029;-58
2023/04/21 09:23:17;;;;;;;9.50;7.45;;;;;;;;;;5055798;28;20054;-58
2023/04/21 09:25:44;;;;;;;5.78;4.63;;;;;;;;;;5055850;28;20108;-58
2023/04/21 09:28:14;;;;;;;4.13;2.97;;;;;;;;;;5055382;28;20032;-59
2023/04/21 09:30:41;;;;;;;5.15;2.92;;;;;;;;;;5055332;28;20033;-58
2023/04/21 09:33:08;;;;;;;5.57;3.45;;;;;;;;;;5055362;28;20036;-58
2023/04/21 09:35:35;;;;;;;6.30;4.53;;;;;;;;;;5055325;28;20029;-59
2023/04/21 09:38:01;;;;;;;4.43;3.50;;;;;;;;;;5055270;28;20029;-58
2023/04/21 09:40:29;;;;;;;7.43;6.03;;;;;;;;;;5055590;28;20048;-58
2023/04/21 09:42:55;;;;;;;7.20;5.13;;;;;;;;;;5055326;28;20029;-58
2023/04/21 09:45:22;;;;;;;5.63;4.93;;;;;;;;;;5055630;28;20123;-59
2023/04/21 09:47:50;;;;;;;8.40;5.78;;;;;;;;;;5055010;28;20025;-59
2023/04/21 09:50:16;;;;;;;8.20;6.63;;;;;;;;;;5053989;28;20025;-58
2023/04/21 09:52:43;;;;;;;7.78;5.40;;;;;;;;;;5055219;28;20355;-59
2023/04/21 09:55:12;;;;;;;8.27;6.70;;;;;;;;;;5055631;28;20032;-59
2023/04/21 09:57:39;;;;;;;11.07;6.80;;;;;;;;;;5054892;28;20032;-59
2023/04/21 10:00:10;;;;;;;7.72;5.95;;;;;;;;;;5054748;28;20039;-58
2023/04/21 10:02:40;;;;;;;6.68;5.68;;;;;;;;;;5054702;28;20040;-59
2023/04/21 10:05:06;;;;;;;8.97;6.33;;;;;;;;;;5055262;28;20029;-59
2023/04/21 10:07:32;;;;;;;6.90;6.03;;;;;;;;;;5054532;28;20751;-59
2023/04/21 10:10:00;;;;;;;9.98;5.90;;;;;;;;;;5054269;28;20029;-59
2023/04/21 10:12:26;;;;;;;9.40;5.80;;;;;;;;;;5054457;28;20451;-59
2023/04/21 10:14:53;;;;;;;6.85;5.93;;;;;;;;;;5054555;28;20060;-59
2023/04/21 10:17:23;;;;;;;7.80;5.70;;;;;;;;;;5054485;28;20029;-59
2023/04/21 10:19:51;;;;;;;7.90;6.88;;;;;;;;;;5054865;28;20131;-59
2023/04/21 10:22:26;;;;;;;8.45;5.85;;;;;;;;;;5054501;28;20483;-59
2023/04/21 10:24:54;;;;;;;6.82;6.05;;;;;;;;;;5054871;28;20029;-59
2023/04/21 10:27:34;;;;;;;7.88;6.28;;;;;;;;;;5054847;28;20021;-59
2023/04/21 10:30:00;;;;;;;28.98;9.52;;;;;;;;;;5054302;28;20082;-59
2023/04/21 10:32:40;;;;;;;10.35;8.10;;;;;;;;;;5054609;28;20112;-59
2023/04/21 10:35:09;;;;;;;7.93;6.60;;;;;;;;;;5054088;28;20021;-59
2023/04/21 10:37:35;;;;;;;9.60;7.75;;;;;;;;;;5054203;28;20025;-59
2023/04/21 10:40:07;;;;;;;9.63;8.15;;;;;;;;;;5053957;28;20024;-59
2023/04/21 10:42:35;;;;;;;11.23;7.63;;;;;;;;;;5053459;28;20163;-60
2023/04/21 10:45:05;;;;;;;7.63;5.90;;;;;;;;;;5053667;28;20057;-59
2023/04/21 10:47:40;;;;;;;10.73;7.97;;;;;;;;;;5054552;28;20020;-59
2023/04/21 10:50:28;;;;;;;13.15;8.93;;;;;;;;;;5053947;28;20029;-59
2023/04/21 10:53:12;;;;;;;9.18;6.47;;;;;;;;;;5053290;28;20021;-59
2023/04/21 10:55:41;;;;;;;9.35;7.20;;;;;;;;;;5053664;28;20025;-59
2023/04/21 10:58:10;;;;;;;12.30;6.50;;;;;;;;;;5053851;28;20039;-59
2023/04/21 11:00:37;;;;;;;7.70;6.25;;;;;;;;;;5053576;28;20037;-59
2023/04/21 11:03:07;;;;;;;7.25;6.00;;;;;;;;;;5054089;28;20087;-59
2023/04/21 11:05:35;;;;;;;10.43;6.50;;;;;;;;;;5054368;28;20029;-59
2023/04/21 11:08:08;;;;;;;8.65;6.80;;;;;;;;;;5053655;28;20021;-59
2023/04/21 11:10:53;;;;;;;7.35;5.82;;;;;;;;;;5052169;28;20033;-59
2023/04/21 11:13:26;;;;;;;7.95;7.00;;;;;;;;;;5053364;28;20021;-59
2023/04/21 11:15:55;;;;;;;6.88;6.07;;;;;;;;;;5054329;28;20379;-59
2023/04/21 11:18:21;;;;;;;6.97;4.43;;;;;;;;;;5053887;28;20541;-59
2023/04/21 11:20:47;;;;;;;7.72;5.68;;;;;;;;;;5053935;28;20032;-60
2023/04/21 11:23:17;;;;;;;7.05;5.93;;;;;;;;;;5053462;28;20111;-59
2023/04/21 11:25:45;;;;;;;8.35;5.22;;;;;;;;;;5053676;28;20056;-59
2023/04/21 11:28:11;;;;;;;6.05;5.30;;;;;;;;;;5053592;28;20025;-59
2023/04/21 11:30:37;;;;;;;8.40;5.85;;;;;;;;;;5053431;28;20099;-59
2023/04/21 11:33:03;;;;;;;8.10;6.68;;;;;;;;;;5053719;28;20044;-59
2023/04/21 11:35:30;;;;;;;6.38;5.63;;;;;;;;;;5054119;28;20112;-59
2023/04/21 11:37:56;;;;;;;7.57;5.45;;;;;;;;;;5053949;28;20060;-59
2023/04/21 11:40:22;;;;;;;10.05;5.38;;;;;;;;;;5054041;28;20037;-59
2023/04/21 11:42:48;;;;;;;7.78;5.18;;;;;;;;;;5054058;28;20029;-59
2023/04/21 11:45:18;;;;;;;7.03;4.90;;;;;;;;;;5053428;28;20025;-59
2023/04/21 11:47:44;;;;;;;5.95;4.65;;;;;;;;;;5053530;28;20102;-59
2023/04/21 11:50:10;;;;;;;5.80;4.55;;;;;;;;;;5053319;28;20470;-59
2023/04/21 11:52:36;;;;;;;6.25;5.22;;;;;;;;;;5053366;28;20056;-59
2023/04/21 11:55:03;;;;;;;7.75;5.75;;;;;;;;;;5053270;28;20028;-60
2023/04/21 11:57:31;;;;;;;5.60;4.93;;;;;;;;;;5053659;28;20032;-59
2023/04/21 12:00:05;;;;;;;8.13;5.60;;;;;;;;;;5053882;28;20040;-59
2023/04/21 12:02:31;;;;;;;7.72;6.05;;;;;;;;;;5053820;28;20052;-59
2023/04/21 12:05:00;;;;;;;7.88;6.20;;;;;;;;;;5053326;28;20458;-59
2023/04/21 12:07:26;;;;;;;6.13;5.45;;;;;;;;;;5053742;28;20052;-59
2023/04/21 12:09:52;;;;;;;10.63;6.13;;;;;;;;;;5053959;28;20087;-59
2023/04/21 12:12:19;;;;;;;5.50;4.80;;;;;;;;;;5053668;28;20095;-59
2023/04/21 12:14:45;;;;;;;7.93;5.47;;;;;;;;;;5056607;28;20049;-59
2023/04/21 12:17:11;;;;;;;6.45;5.75;;;;;;;;;;5057126;28;20071;-59
2023/04/21 12:19:38;;;;;;;7.28;4.75;;;;;;;;;;5057046;28;20033;-59
2023/04/21 12:22:08;;;;;;;6.28;4.22;;;;;;;;;;5057547;28;20029;-59
2023/04/21 12:24:34;;;;;;;5.55;4.45;;;;;;;;;;5056644;28;20025;-59
2023/04/21 12:27:01;;;;;;;5.45;4.50;;;;;;;;;;5056772;28;20033;-59
2023/04/21 12:29:27;;;;;;;10.70;6.88;;;;;;;;;;5056403;28;20098;-59
2023/04/21 12:31:53;;;;;;;6.60;5.63;;;;;;;;;;5056519;28;20049;-59
2023/04/21 12:34:19;;;;;;;6.28;4.72;;;;;;;;;;5056507;28;20029;-59
2023/04/21 12:36:45;;;;;;;6.85;5.20;;;;;;;;;;5056995;28;20025;-59
2023/04/21 12:39:12;;;;;;;6.70;4.70;;;;;;;;;;5056951;28;20032;-59
2023/04/21 12:41:38;;;;;;;6.80;5.28;;;;;;;;;;5056845;28;20037;-59
2023/04/21 12:44:04;;;;;;;5.88;4.35;;;;;;;;;;5056184;28;20348;-59
2023/04/21 12:46:30;;;;;;;6.15;5.28;;;;;;;;;;5056576;28;20021;-59
2023/04/21 12:48:56;;;;;;;7.22;4.85;;;;;;;;;;5056052;28;20566;-59
2023/04/21 12:51:22;;;;;;;5.90;4.43;;;;;;;;;;5056445;28;20112;-59
2023/04/21 12:53:48;;;;;;;4.70;3.60;;;;;;;;;;5056507;28;20036;-59
2023/04/21 12:56:14;;;;;;;5.43;4.30;;;;;;;;;;5056738;28;20032;-59
2023/04/21 12:58:41;;;;;;;5.93;4.43;;;;;;;;;;5056529;28;20099;-59
2023/04/21 13:01:07;;;;;;;4.55;4.15;;;;;;;;;;5056253;28;20032;-59
2023/04/21 13:03:33;;;;;;;6.00;4.32;;;;;;;;;;5055710;28;20040;-59
2023/04/21 13:05:59;;;;;;;4.53;3.00;;;;;;;;;;5056690;28;20025;-59
2023/04/21 13:08:25;;;;;;;5.72;4.57;;;;;;;;;;5055496;28;20025;-59
2023/04/21 13:10:51;;;;;;;5.05;4.07;;;;;;;;;;5055480;28;20029;-59
2023/04/21 13:13:17;;;;;;;4.28;3.63;;;;;;;;;;5055777;28;20078;-59
2023/04/21 13:15:43;;;;;;;4.53;3.65;;;;;;;;;;5056748;28;20037;-59
2023/04/21 13:18:09;;;;;;;5.38;4.05;;;;;;;;;;5056143;28;20017;-59
2023/04/21 13:20:35;;;;;;;4.15;3.17;;;;;;;;;;5055958;28;20025;-59
2023/04/21 13:23:01;;;;;;;4.20;3.15;;;;;;;;;;5055454;28;20035;-59
2023/04/21 13:25:27;;;;;;;5.03;3.28;;;;;;;;;;5055981;28;20035;-59
2023/04/21 13:27:53;;;;;;;5.00;3.00;;;;;;;;;;5055780;28;20355;-59
2023/04/21 13:30:19;;;;;;;2.42;2.05;;;;;;;;;;5055145;28;20029;-59
2023/04/21 13:32:45;;;;;;;4.32;2.65;;;;;;;;;;5055399;28;20027;-59
2023/04/21 13:35:11;;;;;;;3.25;2.13;;;;;;;;;;5055313;28;20070;-59
2023/04/21 13:37:38;;;;;;;2.40;1.40;;;;;;;;;;5054986;28;20032;-59
2023/04/21 13:40:04;;;;;;;2.58;1.95;;;;;;;;;;5054985;28;20036;-59
2023/04/21 13:42:32;;;;;;;3.05;2.03;;;;;;;;;;5055159;28;20082;-59
2023/04/21 13:44:58;;;;;;;3.53;2.08;;;;;;;;;;5055070;28;20113;-59
2023/04/21 13:47:24;;;;;;;3.35;2.33;;;;;;;;;;5055466;28;20055;-59
2023/04/21 13:49:50;;;;;;;2.70;1.38;;;;;;;;;;5055824;28;20359;-59
2023/04/21 13:52:16;;;;;;;2.55;1.40;;;;;;;;;;5054832;28;20021;-59
2023/04/21 13:54:43;;;;;;;1.85;1.00;;;;;;;;;;5054839;28;20028;-59
2023/04/21 13:57:09;;;;;;;3.00;1.48;;;;;;;;;;5055423;28;20032;-59
2023/04/21 13:59:35;;;;;;;2.55;1.60;;;;;;;;;;5054400;28;20447;-59
2023/04/21 14:02:01;;;;;;;2.20;1.45;;;;;;;;;;5055072;28;20069;-59
2023/04/21 14:04:27;;;;;;;1.98;1.27;;;;;;;;;;5054796;28;20451;-60
2023/04/21 14:06:53;;;;;;;4.15;1.73;;;;;;;;;;5055034;28;20021;-59
2023/04/21 14:09:19;;;;;;;3.83;1.65;;;;;;;;;;5054692;28;20029;-59
2023/04/21 14:11:45;;;;;;;1.77;1.20;;;;;;;;;;5054732;28;20032;-60
2023/04/21 14:14:11;;;;;;;3.28;1.77;;;;;;;;;;5054367;28;20053;-59
2023/04/21 14:16:37;;;;;;;2.47;1.27;;;;;;;;;;5055331;28;20041;-59
2023/04/21 14:19:03;;;;;;;2.40;1.50;;;;;;;;;;5054358;28;20079;-59
2023/04/21 14:21:30;;;;;;;2.22;1.50;;;;;;;;;;5054960;28;20029;-59
2023/04/21 14:23:57;;;;;;;2.90;1.80;;;;;;;;;;5054363;28;20045;-59